createdAt,value
2022-12-03T00:02:00.024Z,13.90
2022-12-03T00:04:26.899Z,11.10
2022-12-03T00:06:53.568Z,11.35
2022-12-03T00:09:20.133Z,10.52
2022-12-03T00:11:46.715Z,8.45
2022-12-03T00:14:13.354Z,8.30
2022-12-03T00:16:39.989Z,12.05
2022-12-03T00:19:07.779Z,13.50
2022-12-03T00:21:34.591Z,14.15
2022-12-03T00:24:01.367Z,11.40
2022-12-03T00:26:28.052Z,16.02
2022-12-03T00:28:54.984Z,14.60
2022-12-03T00:31:23.544Z,13.63
2022-12-03T00:33:53.037Z,10.68
2022-12-03T00:36:20.032Z,10.27
2022-12-03T00:38:46.526Z,12.43
2022-12-03T00:41:13.261Z,11.37
2022-12-03T00:43:39.947Z,11.32
2022-12-03T00:46:06.662Z,11.57
2022-12-03T00:48:33.305Z,11.07
2022-12-03T00:50:59.889Z,12.88
2022-12-03T00:53:26.641Z,9.00
2022-12-03T00:55:53.147Z,10.70
2022-12-03T00:58:19.681Z,12.55
2022-12-03T01:00:46.191Z,11.43
2022-12-03T01:03:12.727Z,9.85
2022-12-03T01:05:39.262Z,10.85
2022-12-03T01:08:06.019Z,8.00
2022-12-03T01:10:32.598Z,16.27
2022-12-03T01:12:59.110Z,10.15
2022-12-03T01:15:25.672Z,15.47
2022-12-03T01:17:54.228Z,19.60
2022-12-03T01:20:21.034Z,12.18
2022-12-03T01:22:47.612Z,12.85
2022-12-03T01:25:14.534Z,114.95
2022-12-03T01:27:41.105Z,14.73
2022-12-03T01:30:08.278Z,11.93
2022-12-03T01:32:34.836Z,11.77
2022-12-03T01:35:01.364Z,7.55
2022-12-03T01:37:28.077Z,8.77
2022-12-03T01:39:54.733Z,11.32
2022-12-03T01:42:27.278Z,10.75
2022-12-03T01:44:57.060Z,11.30
2022-12-03T01:47:34.716Z,13.95
2022-12-03T01:50:04.399Z,13.55
2022-12-03T01:52:36.146Z,12.30
2022-12-03T01:55:06.189Z,12.45
2022-12-03T01:57:45.500Z,11.90
2022-12-03T02:00:21.295Z,11.82
2022-12-03T02:02:55.098Z,11.75
2022-12-03T02:05:25.010Z,11.82
2022-12-03T02:07:52.289Z,11.40
2022-12-03T02:13:03.289Z,12.05
2022-12-03T02:15:29.883Z,11.60
2022-12-03T02:17:57.756Z,11.68
2022-12-03T02:20:24.526Z,12.35
2022-12-03T02:23:09.416Z,11.07
2022-12-03T02:25:37.865Z,13.43
2022-12-03T02:28:06.050Z,33.78
2022-12-03T02:30:32.644Z,13.95
2022-12-03T02:32:59.746Z,14.00
2022-12-03T02:35:30.269Z,11.73
2022-12-03T02:38:03.321Z,15.57
2022-12-03T02:40:32.669Z,12.75
2022-12-03T02:43:02.517Z,15.77
2022-12-03T02:45:33.017Z,12.38
2022-12-03T02:48:02.440Z,11.90
2022-12-03T02:50:37.558Z,15.98
2022-12-03T02:53:07.273Z,12.30
2022-12-03T02:55:37.364Z,13.40
2022-12-03T02:58:05.788Z,10.70
2022-12-03T03:00:33.378Z,13.55
2022-12-03T03:03:01.192Z,11.30
2022-12-03T03:05:28.086Z,12.05
2022-12-03T03:07:56.697Z,11.50
2022-12-03T03:10:24.117Z,10.00
2022-12-03T03:15:20.162Z,10.88
2022-12-03T03:20:13.947Z,10.55
2022-12-03T03:25:12.338Z,12.75
2022-12-03T03:27:41.011Z,13.38
2022-12-03T03:30:09.926Z,17.23
2022-12-03T03:32:37.659Z,13.48
2022-12-03T03:35:06.443Z,16.65
2022-12-03T03:37:33.057Z,15.93
2022-12-03T03:39:59.655Z,16.00
2022-12-03T03:42:26.235Z,14.82
2022-12-03T03:44:53.135Z,13.90
2022-12-03T03:47:20.842Z,10.02
2022-12-03T03:49:49.543Z,12.85
2022-12-03T03:52:16.303Z,15.13
2022-12-03T03:54:43.009Z,15.23
2022-12-03T03:57:09.575Z,14.15
2022-12-03T03:59:36.397Z,15.75
2022-12-03T04:02:03.539Z,17.88
2022-12-03T04:04:35.783Z,16.48
2022-12-03T04:07:02.473Z,20.30
2022-12-03T04:09:29.049Z,21.48
2022-12-03T04:12:14.285Z,20.35
2022-12-03T04:14:40.798Z,20.33
2022-12-03T04:17:07.299Z,19.47
2022-12-03T04:19:33.832Z,25.37
2022-12-03T04:22:18.898Z,23.50
2022-12-03T04:24:45.424Z,20.40
2022-12-03T04:27:30.589Z,24.02
2022-12-03T04:29:57.145Z,18.50
2022-12-03T04:32:42.130Z,14.93
2022-12-03T04:35:28.576Z,15.00
2022-12-03T04:37:55.144Z,14.20
2022-12-03T04:40:40.173Z,13.13
2022-12-03T04:43:06.726Z,15.95
2022-12-03T04:45:33.343Z,15.23
2022-12-03T04:47:59.966Z,15.63
2022-12-03T04:50:26.675Z,19.85
2022-12-03T04:52:53.165Z,19.90
2022-12-03T04:55:19.659Z,21.27
2022-12-03T04:57:46.153Z,15.13
2022-12-03T05:00:13.477Z,17.33
2022-12-03T05:05:06.925Z,19.95
2022-12-03T05:07:33.554Z,18.02
2022-12-03T05:10:00.145Z,19.98
2022-12-03T05:12:26.731Z,15.60
2022-12-03T05:14:53.562Z,19.60
2022-12-03T05:17:20.337Z,20.02
2022-12-03T05:20:05.238Z,13.95
2022-12-03T05:22:31.805Z,20.83
2022-12-03T05:24:58.324Z,21.85
2022-12-03T05:27:24.884Z,19.33
2022-12-03T05:29:52.016Z,19.45
2022-12-03T05:32:18.952Z,21.38
2022-12-03T05:34:45.562Z,18.20
2022-12-03T05:37:12.082Z,21.55
2022-12-03T05:39:38.604Z,16.40
2022-12-03T05:42:23.726Z,26.37
2022-12-03T05:44:50.230Z,20.42
2022-12-03T05:47:16.802Z,15.70
2022-12-03T05:49:43.347Z,23.73
2022-12-03T05:52:09.946Z,24.90
2022-12-03T05:54:36.534Z,18.85
2022-12-03T05:57:03.141Z,17.77
2022-12-03T05:59:29.674Z,17.23
2022-12-03T06:01:56.313Z,18.57
2022-12-03T06:04:22.858Z,17.92
2022-12-03T06:06:49.358Z,22.57
2022-12-03T06:09:15.863Z,19.97
2022-12-03T06:11:42.385Z,22.27
2022-12-03T06:14:09.129Z,19.70
2022-12-03T06:16:35.666Z,43.33
2022-12-03T06:19:02.207Z,57.83
2022-12-03T06:21:28.746Z,41.67
2022-12-03T06:23:55.305Z,46.35
2022-12-03T06:26:21.831Z,53.03
2022-12-03T06:28:49.374Z,45.53
2022-12-03T06:31:16.036Z,41.08
2022-12-03T06:33:42.633Z,42.20
2022-12-03T06:36:09.246Z,52.70
2022-12-03T06:38:35.781Z,38.15
2022-12-03T06:41:02.318Z,40.75
2022-12-03T06:43:30.897Z,47.92
2022-12-03T06:45:57.432Z,38.75
2022-12-03T06:48:23.975Z,30.37
2022-12-03T06:50:50.517Z,35.40
2022-12-03T06:53:17.102Z,40.87
2022-12-03T06:55:43.695Z,47.10
2022-12-03T06:58:10.236Z,41.55
2022-12-03T07:00:36.788Z,34.37
2022-12-03T07:03:03.415Z,32.40
2022-12-03T07:05:30.084Z,31.85
2022-12-03T07:07:57.167Z,29.40
2022-12-03T07:10:23.787Z,37.72
2022-12-03T07:12:50.364Z,36.15
2022-12-03T07:15:17.150Z,36.97
2022-12-03T07:17:43.767Z,29.05
2022-12-03T07:20:10.783Z,39.83
2022-12-03T07:22:37.313Z,36.45
2022-12-03T07:25:04.455Z,38.27
2022-12-03T07:27:30.990Z,39.58
2022-12-03T07:29:57.530Z,40.73
2022-12-03T07:32:24.067Z,38.30
2022-12-03T07:34:50.885Z,29.25
2022-12-03T07:37:22.703Z,42.30
2022-12-03T07:39:49.778Z,46.45
2022-12-03T07:42:16.314Z,50.65
2022-12-03T07:44:42.855Z,58.20
2022-12-03T07:47:09.406Z,52.95
2022-12-03T07:49:35.997Z,54.92
2022-12-03T07:52:02.525Z,50.85
2022-12-03T07:54:29.071Z,44.25
2022-12-03T07:57:00.945Z,48.63
2022-12-03T07:59:28.559Z,52.42
2022-12-03T08:01:55.347Z,48.05
2022-12-03T08:04:22.113Z,51.97
2022-12-03T08:06:49.142Z,68.75
2022-12-03T08:09:16.301Z,50.92
2022-12-03T08:11:48.803Z,63.08
2022-12-03T08:14:18.082Z,52.13
2022-12-03T08:16:46.884Z,33.13
2022-12-03T08:19:17.816Z,28.13
2022-12-03T08:21:44.825Z,29.70
2022-12-03T08:24:17.339Z,29.40
2022-12-03T08:26:45.448Z,37.13
2022-12-03T08:29:15.315Z,29.58
2022-12-03T08:31:42.692Z,30.60
2022-12-03T08:36:47.718Z,24.85
2022-12-03T08:39:28.247Z,25.38
2022-12-03T08:42:17.608Z,28.13
2022-12-03T08:44:44.610Z,25.83
2022-12-03T08:47:19.472Z,31.75
2022-12-03T08:49:55.123Z,67.38
2022-12-03T08:52:26.926Z,27.13
2022-12-03T08:55:29.072Z,27.92
2022-12-03T08:57:55.634Z,24.20
2022-12-03T09:00:24.380Z,28.30
2022-12-03T09:02:53.712Z,30.95
2022-12-03T09:05:28.132Z,36.90
2022-12-03T09:07:54.707Z,28.95
2022-12-03T09:10:21.329Z,27.20
2022-12-03T09:12:47.927Z,27.70
2022-12-03T09:15:14.532Z,19.10
2022-12-03T09:17:41.072Z,21.75
2022-12-03T09:20:08.304Z,25.63
2022-12-03T09:22:34.823Z,30.08
2022-12-03T09:25:01.489Z,30.13
2022-12-03T09:27:28.045Z,51.35
2022-12-03T09:29:54.567Z,57.08
2022-12-03T09:32:21.216Z,27.57
2022-12-03T09:34:47.829Z,30.80
2022-12-03T09:37:14.440Z,30.50
2022-12-03T09:39:40.966Z,30.50
2022-12-03T09:42:08.093Z,31.00
2022-12-03T09:44:35.507Z,24.63
2022-12-03T09:49:32.591Z,62.72
2022-12-03T09:52:02.003Z,32.45
2022-12-03T09:54:30.732Z,25.85
2022-12-03T09:57:00.345Z,27.27
2022-12-03T09:59:33.406Z,23.58
2022-12-03T10:02:00.687Z,23.38
2022-12-03T10:04:28.574Z,28.17
2022-12-03T10:06:57.837Z,27.55
2022-12-03T10:09:26.702Z,25.48
2022-12-03T10:11:54.560Z,27.50
2022-12-03T10:14:21.267Z,24.92
2022-12-03T10:16:48.477Z,28.67
2022-12-03T10:19:27.669Z,38.75
2022-12-03T10:21:55.675Z,31.38
2022-12-03T10:24:33.758Z,30.13
2022-12-03T10:27:02.378Z,31.75
2022-12-03T10:29:34.280Z,28.25
2022-12-03T10:32:06.835Z,33.80
2022-12-03T10:34:41.220Z,34.33
2022-12-03T10:37:19.487Z,29.08
2022-12-03T10:40:11.882Z,24.25
2022-12-03T10:42:40.865Z,26.38
2022-12-03T10:45:22.703Z,63.67
2022-12-03T10:48:21.999Z,30.10
2022-12-03T10:51:04.674Z,54.28
2022-12-03T10:53:34.280Z,28.58
2022-12-03T10:56:03.228Z,23.52
2022-12-03T10:58:34.035Z,24.63
2022-12-03T11:01:05.982Z,26.90
2022-12-03T11:03:36.276Z,24.65
2022-12-03T11:06:03.453Z,28.00
2022-12-03T11:08:34.583Z,30.48
2022-12-03T11:11:04.868Z,51.80
2022-12-03T11:13:34.460Z,31.65
2022-12-03T11:16:07.445Z,27.45
2022-12-03T11:18:37.026Z,39.75
2022-12-03T11:21:06.489Z,25.75
2022-12-03T11:23:45.024Z,25.73
2022-12-03T11:26:19.280Z,26.85
2022-12-03T11:28:46.417Z,25.17
2022-12-03T11:31:35.787Z,25.38
2022-12-03T11:34:20.826Z,25.30
2022-12-03T11:37:11.941Z,24.13
2022-12-03T11:39:50.922Z,26.13
2022-12-03T11:42:26.388Z,25.85
2022-12-03T11:45:13.853Z,27.13
2022-12-03T11:47:47.019Z,32.72
2022-12-03T11:50:40.160Z,29.38
2022-12-03T11:53:25.438Z,24.23
2022-12-03T11:56:09.006Z,26.23
2022-12-03T11:58:38.390Z,28.52
2022-12-03T12:01:07.204Z,25.92
2022-12-03T12:03:37.084Z,28.98
2022-12-03T12:06:09.166Z,28.80
2022-12-03T12:08:38.342Z,35.72
2022-12-03T12:11:17.259Z,25.52
2022-12-03T12:14:26.357Z,30.35
2022-12-03T12:16:55.260Z,26.48
2022-12-03T12:19:43.207Z,28.08
2022-12-03T12:22:25.298Z,24.75
2022-12-03T12:24:56.728Z,32.17
2022-12-03T12:27:39.373Z,28.15
2022-12-03T12:30:14.874Z,26.80
2022-12-03T12:32:46.895Z,29.50
2022-12-03T12:35:28.317Z,26.80
2022-12-03T12:38:00.817Z,32.58
2022-12-03T12:40:32.920Z,31.58
2022-12-03T12:43:22.073Z,30.33
2022-12-03T12:45:53.165Z,28.02
2022-12-03T12:48:31.167Z,35.33
2022-12-03T12:51:09.531Z,42.78
2022-12-03T12:53:38.912Z,44.85
2022-12-03T12:56:32.360Z,41.92
2022-12-03T12:59:09.334Z,33.35
2022-12-03T13:01:36.514Z,33.60
2022-12-03T13:04:14.162Z,31.10
2022-12-03T13:06:41.167Z,34.90
2022-12-03T13:09:19.131Z,34.20
2022-12-03T13:11:58.514Z,27.88
2022-12-03T13:14:30.292Z,30.60
2022-12-03T13:16:59.034Z,37.53
2022-12-03T13:19:27.865Z,38.05
2022-12-03T13:21:56.356Z,35.30
2022-12-03T13:24:37.947Z,39.08
2022-12-03T13:27:13.766Z,45.30
2022-12-03T13:29:40.595Z,35.72
2022-12-03T13:32:14.253Z,29.85
2022-12-03T13:34:41.114Z,36.38
2022-12-03T13:37:19.553Z,38.88
2022-12-03T13:39:49.808Z,41.22
2022-12-03T13:42:39.167Z,42.25
2022-12-03T13:45:14.788Z,53.92
2022-12-03T13:47:43.349Z,46.45
2022-12-03T13:50:22.125Z,42.47
2022-12-03T13:52:48.759Z,43.72
2022-12-03T13:55:28.032Z,43.83
2022-12-03T13:57:55.499Z,42.15
2022-12-03T14:02:48.683Z,48.85
2022-12-03T14:05:15.502Z,35.70
2022-12-03T14:07:42.082Z,45.95
2022-12-03T14:10:11.386Z,50.83
2022-12-03T14:12:38.290Z,49.92
2022-12-03T14:15:06.409Z,49.53
2022-12-03T14:17:33.010Z,48.22
2022-12-03T14:20:03.807Z,57.58
2022-12-03T14:22:30.737Z,55.45
2022-12-03T14:24:57.580Z,58.22
2022-12-03T14:27:24.956Z,62.47
2022-12-03T14:32:19.240Z,52.45
2022-12-03T14:34:45.818Z,50.15
2022-12-03T14:37:12.333Z,53.00
2022-12-03T14:39:38.985Z,52.30
2022-12-03T14:42:14.926Z,50.03
2022-12-03T14:44:46.151Z,53.25
2022-12-03T14:47:13.804Z,51.55
2022-12-03T14:49:41.118Z,49.47
2022-12-03T14:52:11.911Z,50.95
2022-12-03T14:54:39.255Z,55.28
2022-12-03T14:57:05.909Z,58.15
2022-12-03T14:59:32.453Z,49.03
2022-12-03T15:01:59.075Z,47.63
2022-12-03T15:04:25.970Z,66.30
2022-12-03T15:06:52.555Z,55.47
2022-12-03T15:09:19.193Z,58.72
2022-12-03T15:11:46.675Z,64.43
2022-12-03T15:14:13.688Z,68.00
2022-12-03T15:16:40.449Z,66.72
2022-12-03T15:19:07.233Z,53.53
2022-12-03T15:21:35.024Z,78.53
2022-12-03T15:24:02.552Z,74.65
2022-12-03T15:28:55.945Z,72.10
2022-12-03T15:31:22.666Z,68.70
2022-12-03T15:33:49.293Z,66.63
2022-12-03T15:36:15.895Z,63.33
2022-12-03T15:38:42.705Z,76.43
2022-12-03T15:41:21.605Z,87.28
2022-12-03T15:43:49.069Z,72.80
